sensor_id;sensor_type;location;lat;lon;timestamp;P1;durP1;ratioP1;P2;durP2;ratioP2
41139;SDS011;26881;48.784;9.192;2023-09-19T00:03:39;2.33;;;1.10;;
41139;SDS011;26881;48.784;9.192;2023-09-19T00:09:04;1.52;;;0.90;;
41139;SDS011;26881;48.784;9.192;2023-09-19T00:14:27;1.42;;;0.98;;
41139;SDS011;26881;48.784;9.192;2023-09-19T00:19:49;2.22;;;1.05;;
41139;SDS011;26881;48.784;9.192;2023-09-19T00:25:11;2.60;;;1.08;;
41139;SDS011;26881;48.784;9.192;2023-09-19T00:30:34;1.63;;;0.90;;
41139;SDS011;26881;48.784;9.192;2023-09-19T00:35:56;2.33;;;1.20;;
41139;SDS011;26881;48.784;9.192;2023-09-19T00:41:19;2.45;;;1.00;;
41139;SDS011;26881;48.784;9.192;2023-09-19T00:46:41;2.15;;;0.80;;
41139;SDS011;26881;48.784;9.192;2023-09-19T00:52:03;1.27;;;1.00;;
41139;SDS011;26881;48.784;9.192;2023-09-19T00:57:26;1.77;;;0.88;;
41139;SDS011;26881;48.784;9.192;2023-09-19T01:02:48;3.47;;;1.40;;
41139;SDS011;26881;48.784;9.192;2023-09-19T01:08:10;1.92;;;0.93;;
41139;SDS011;26881;48.784;9.192;2023-09-19T01:13:40;1.98;;;1.30;;
41139;SDS011;26881;48.784;9.192;2023-09-19T01:30:32;2.03;;;0.95;;
41139;SDS011;26881;48.784;9.192;2023-09-19T01:35:57;3.13;;;1.17;;
41139;SDS011;26881;48.784;9.192;2023-09-19T01:41:21;6.72;;;1.80;;
41139;SDS011;26881;48.784;9.192;2023-09-19T01:46:54;0.77;;;0.77;;
41139;SDS011;26881;48.784;9.192;2023-09-19T01:52:22;3.45;;;0.93;;
41139;SDS011;26881;48.784;9.192;2023-09-19T02:03:30;2.67;;;0.75;;
41139;SDS011;26881;48.784;9.192;2023-09-19T02:08:54;2.58;;;0.70;;
41139;SDS011;26881;48.784;9.192;2023-09-19T02:14:16;1.17;;;0.68;;
41139;SDS011;26881;48.784;9.192;2023-09-19T02:19:38;1.50;;;0.77;;
41139;SDS011;26881;48.784;9.192;2023-09-19T02:25:01;0.75;;;0.70;;
41139;SDS011;26881;48.784;9.192;2023-09-19T02:30:23;1.17;;;0.82;;
41139;SDS011;26881;48.784;9.192;2023-09-19T02:35:46;1.08;;;0.80;;
41139;SDS011;26881;48.784;9.192;2023-09-19T02:41:09;0.82;;;0.82;;
41139;SDS011;26881;48.784;9.192;2023-09-19T02:46:31;2.33;;;0.70;;
41139;SDS011;26881;48.784;9.192;2023-09-19T02:51:53;1.85;;;0.73;;
41139;SDS011;26881;48.784;9.192;2023-09-19T02:57:15;1.50;;;1.13;;
41139;SDS011;26881;48.784;9.192;2023-09-19T03:02:39;2.40;;;0.98;;
41139;SDS011;26881;48.784;9.192;2023-09-19T03:08:03;2.83;;;0.90;;
41139;SDS011;26881;48.784;9.192;2023-09-19T03:13:26;2.08;;;1.23;;
41139;SDS011;26881;48.784;9.192;2023-09-19T03:18:48;1.33;;;0.85;;
41139;SDS011;26881;48.784;9.192;2023-09-19T03:24:12;1.33;;;0.75;;
41139;SDS011;26881;48.784;9.192;2023-09-19T03:29:34;2.85;;;1.00;;
41139;SDS011;26881;48.784;9.192;2023-09-19T03:34:57;0.75;;;0.75;;
41139;SDS011;26881;48.784;9.192;2023-09-19T03:40:18;1.67;;;0.95;;
41139;SDS011;26881;48.784;9.192;2023-09-19T03:45:43;5.00;;;1.00;;
41139;SDS011;26881;48.784;9.192;2023-09-19T03:51:04;1.77;;;1.00;;
41139;SDS011;26881;48.784;9.192;2023-09-19T03:56:26;1.20;;;1.10;;
41139;SDS011;26881;48.784;9.192;2023-09-19T04:01:50;1.20;;;1.10;;
41139;SDS011;26881;48.784;9.192;2023-09-19T04:07:12;2.72;;;1.60;;
41139;SDS011;26881;48.784;9.192;2023-09-19T04:12:34;2.80;;;1.02;;
41139;SDS011;26881;48.784;9.192;2023-09-19T04:17:56;1.80;;;1.13;;
41139;SDS011;26881;48.784;9.192;2023-09-19T04:23:18;2.20;;;1.50;;
41139;SDS011;26881;48.784;9.192;2023-09-19T04:28:43;3.13;;;1.48;;
41139;SDS011;26881;48.784;9.192;2023-09-19T04:34:06;3.67;;;1.27;;
41139;SDS011;26881;48.784;9.192;2023-09-19T04:39:29;1.92;;;1.20;;
41139;SDS011;26881;48.784;9.192;2023-09-19T04:44:51;2.17;;;1.23;;
41139;SDS011;26881;48.784;9.192;2023-09-19T04:50:14;4.40;;;1.25;;
41139;SDS011;26881;48.784;9.192;2023-09-19T04:55:38;4.68;;;1.20;;
41139;SDS011;26881;48.784;9.192;2023-09-19T05:01:00;1.58;;;0.95;;
41139;SDS011;26881;48.784;9.192;2023-09-19T05:06:25;1.50;;;1.13;;
41139;SDS011;26881;48.784;9.192;2023-09-19T05:11:48;3.20;;;1.60;;
41139;SDS011;26881;48.784;9.192;2023-09-19T05:17:10;1.60;;;1.30;;
41139;SDS011;26881;48.784;9.192;2023-09-19T05:22:32;3.58;;;1.13;;
41139;SDS011;26881;48.784;9.192;2023-09-19T05:27:58;1.40;;;1.30;;
41139;SDS011;26881;48.784;9.192;2023-09-19T05:33:20;2.53;;;1.40;;
41139;SDS011;26881;48.784;9.192;2023-09-19T05:38:42;2.33;;;1.40;;
41139;SDS011;26881;48.784;9.192;2023-09-19T05:44:06;7.32;;;1.42;;
41139;SDS011;26881;48.784;9.192;2023-09-19T05:49:28;2.55;;;1.55;;
41139;SDS011;26881;48.784;9.192;2023-09-19T05:54:50;1.50;;;1.20;;
41139;SDS011;26881;48.784;9.192;2023-09-19T06:00:12;2.95;;;1.55;;
41139;SDS011;26881;48.784;9.192;2023-09-19T06:05:35;3.63;;;1.23;;
41139;SDS011;26881;48.784;9.192;2023-09-19T06:10:56;2.70;;;1.52;;
41139;SDS011;26881;48.784;9.192;2023-09-19T06:16:18;3.35;;;1.48;;
41139;SDS011;26881;48.784;9.192;2023-09-19T06:21:41;2.83;;;1.50;;
41139;SDS011;26881;48.784;9.192;2023-09-19T06:27:03;4.75;;;1.58;;
41139;SDS011;26881;48.784;9.192;2023-09-19T06:32:29;1.92;;;1.35;;
41139;SDS011;26881;48.784;9.192;2023-09-19T06:37:51;2.58;;;1.60;;
41139;SDS011;26881;48.784;9.192;2023-09-19T06:43:13;4.07;;;1.50;;
41139;SDS011;26881;48.784;9.192;2023-09-19T06:48:35;4.55;;;1.70;;
41139;SDS011;26881;48.784;9.192;2023-09-19T06:53:57;6.10;;;1.90;;
41139;SDS011;26881;48.784;9.192;2023-09-19T06:59:20;3.08;;;1.70;;
41139;SDS011;26881;48.784;9.192;2023-09-19T07:04:42;2.20;;;1.40;;
41139;SDS011;26881;48.784;9.192;2023-09-19T07:10:04;2.60;;;1.67;;
41139;SDS011;26881;48.784;9.192;2023-09-19T07:15:27;3.38;;;1.60;;
41139;SDS011;26881;48.784;9.192;2023-09-19T07:20:50;8.55;;;1.90;;
41139;SDS011;26881;48.784;9.192;2023-09-19T07:26:12;1.80;;;1.65;;
41139;SDS011;26881;48.784;9.192;2023-09-19T07:31:33;4.22;;;1.52;;
41139;SDS011;26881;48.784;9.192;2023-09-19T07:36:56;5.53;;;1.80;;
41139;SDS011;26881;48.784;9.192;2023-09-19T07:42:18;3.90;;;1.60;;
41139;SDS011;26881;48.784;9.192;2023-09-19T07:47:43;4.13;;;2.10;;
41139;SDS011;26881;48.784;9.192;2023-09-19T07:53:08;4.22;;;2.33;;
41139;SDS011;26881;48.784;9.192;2023-09-19T07:58:30;2.17;;;1.58;;
41139;SDS011;26881;48.784;9.192;2023-09-19T08:03:52;3.00;;;1.52;;
41139;SDS011;26881;48.784;9.192;2023-09-19T08:09:14;2.90;;;1.65;;
41139;SDS011;26881;48.784;9.192;2023-09-19T08:14:46;3.75;;;1.60;;
41139;SDS011;26881;48.784;9.192;2023-09-19T08:20:09;4.50;;;1.35;;
41139;SDS011;26881;48.784;9.192;2023-09-19T08:25:37;1.83;;;1.30;;
41139;SDS011;26881;48.784;9.192;2023-09-19T08:31:04;1.65;;;1.13;;
41139;SDS011;26881;48.784;9.192;2023-09-19T08:36:27;4.60;;;1.20;;
41139;SDS011;26881;48.784;9.192;2023-09-19T08:41:49;1.13;;;1.05;;
41139;SDS011;26881;48.784;9.192;2023-09-19T08:47:11;2.60;;;1.35;;
41139;SDS011;26881;48.784;9.192;2023-09-19T08:52:40;2.65;;;1.30;;
41139;SDS011;26881;48.784;9.192;2023-09-19T08:58:03;2.92;;;1.40;;
41139;SDS011;26881;48.784;9.192;2023-09-19T09:03:30;2.05;;;1.05;;
41139;SDS011;26881;48.784;9.192;2023-09-19T09:08:55;3.95;;;1.00;;
41139;SDS011;26881;48.784;9.192;2023-09-19T09:14:18;3.40;;;1.00;;
41139;SDS011;26881;48.784;9.192;2023-09-19T09:19:42;1.42;;;1.30;;
41139;SDS011;26881;48.784;9.192;2023-09-19T09:25:05;1.92;;;1.20;;
41139;SDS011;26881;48.784;9.192;2023-09-19T09:30:33;0.82;;;0.82;;
41139;SDS011;26881;48.784;9.192;2023-09-19T09:41:19;1.48;;;1.10;;
41139;SDS011;26881;48.784;9.192;2023-09-19T09:46:50;4.82;;;1.35;;
41139;SDS011;26881;48.784;9.192;2023-09-19T09:52:21;3.17;;;1.42;;
41139;SDS011;26881;48.784;9.192;2023-09-19T09:57:46;1.65;;;1.30;;
41139;SDS011;26881;48.784;9.192;2023-09-19T10:03:19;1.63;;;1.17;;
41139;SDS011;26881;48.784;9.192;2023-09-19T10:08:57;1.73;;;1.15;;
41139;SDS011;26881;48.784;9.192;2023-09-19T10:14:33;2.45;;;1.02;;
41139;SDS011;26881;48.784;9.192;2023-09-19T10:19:59;2.70;;;1.02;;
41139;SDS011;26881;48.784;9.192;2023-09-19T10:25:31;3.33;;;1.20;;
41139;SDS011;26881;48.784;9.192;2023-09-19T10:30:53;0.95;;;0.95;;
41139;SDS011;26881;48.784;9.192;2023-09-19T10:36:15;2.30;;;1.42;;
41139;SDS011;26881;48.784;9.192;2023-09-19T10:41:39;2.92;;;1.23;;
41139;SDS011;26881;48.784;9.192;2023-09-19T10:47:01;3.67;;;1.50;;
41139;SDS011;26881;48.784;9.192;2023-09-19T10:52:25;1.33;;;1.10;;
41139;SDS011;26881;48.784;9.192;2023-09-19T10:57:50;4.97;;;1.20;;
41139;SDS011;26881;48.784;9.192;2023-09-19T11:03:16;1.58;;;1.00;;
41139;SDS011;26881;48.784;9.192;2023-09-19T11:14:37;2.70;;;0.80;;
41139;SDS011;26881;48.784;9.192;2023-09-19T11:42:44;2.75;;;1.25;;
41139;SDS011;26881;48.784;9.192;2023-09-19T11:48:16;1.80;;;0.98;;
41139;SDS011;26881;48.784;9.192;2023-09-19T11:53:40;3.70;;;1.20;;
41139;SDS011;26881;48.784;9.192;2023-09-19T11:59:03;1.27;;;0.98;;
41139;SDS011;26881;48.784;9.192;2023-09-19T12:04:34;3.25;;;1.10;;
41139;SDS011;26881;48.784;9.192;2023-09-19T12:10:04;1.63;;;1.17;;
41139;SDS011;26881;48.784;9.192;2023-09-19T12:15:27;2.05;;;1.25;;
41139;SDS011;26881;48.784;9.192;2023-09-19T12:20:55;1.00;;;1.00;;
41139;SDS011;26881;48.784;9.192;2023-09-19T12:26:19;1.80;;;0.90;;
41139;SDS011;26881;48.784;9.192;2023-09-19T12:31:51;1.42;;;0.90;;
41139;SDS011;26881;48.784;9.192;2023-09-19T12:37:17;0.93;;;0.90;;
41139;SDS011;26881;48.784;9.192;2023-09-19T12:42:49;2.95;;;1.25;;
41139;SDS011;26881;48.784;9.192;2023-09-19T12:48:24;1.33;;;1.10;;
41139;SDS011;26881;48.784;9.192;2023-09-19T12:53:57;1.17;;;1.10;;
41139;SDS011;26881;48.784;9.192;2023-09-19T12:59:19;2.92;;;1.00;;
41139;SDS011;26881;48.784;9.192;2023-09-19T13:04:52;2.75;;;1.10;;
41139;SDS011;26881;48.784;9.192;2023-09-19T13:10:15;2.33;;;1.00;;
41139;SDS011;26881;48.784;9.192;2023-09-19T13:15:51;4.10;;;1.25;;
41139;SDS011;26881;48.784;9.192;2023-09-19T13:21:13;4.55;;;1.15;;
41139;SDS011;26881;48.784;9.192;2023-09-19T13:26:44;2.08;;;1.35;;
41139;SDS011;26881;48.784;9.192;2023-09-19T13:32:07;1.27;;;1.17;;
41139;SDS011;26881;48.784;9.192;2023-09-19T13:37:33;5.90;;;1.13;;
41139;SDS011;26881;48.784;9.192;2023-09-19T13:42:56;1.20;;;1.00;;
41139;SDS011;26881;48.784;9.192;2023-09-19T13:48:18;2.55;;;1.38;;
41139;SDS011;26881;48.784;9.192;2023-09-19T13:53:43;2.53;;;1.20;;
41139;SDS011;26881;48.784;9.192;2023-09-19T13:59:05;1.77;;;1.38;;
41139;SDS011;26881;48.784;9.192;2023-09-19T14:04:28;2.50;;;1.40;;
41139;SDS011;26881;48.784;9.192;2023-09-19T14:09:50;1.20;;;1.10;;
41139;SDS011;26881;48.784;9.192;2023-09-19T14:15:12;2.67;;;1.00;;
41139;SDS011;26881;48.784;9.192;2023-09-19T14:20:37;3.90;;;1.38;;
41139;SDS011;26881;48.784;9.192;2023-09-19T14:26:00;1.92;;;0.88;;
41139;SDS011;26881;48.784;9.192;2023-09-19T14:31:23;1.95;;;1.25;;
41139;SDS011;26881;48.784;9.192;2023-09-19T14:36:45;3.25;;;1.10;;
41139;SDS011;26881;48.784;9.192;2023-09-19T14:42:06;2.22;;;1.10;;
41139;SDS011;26881;48.784;9.192;2023-09-19T14:47:30;2.03;;;1.20;;
41139;SDS011;26881;48.784;9.192;2023-09-19T14:52:55;1.42;;;1.27;;
41139;SDS011;26881;48.784;9.192;2023-09-19T14:58:17;2.15;;;1.10;;
41139;SDS011;26881;48.784;9.192;2023-09-19T15:03:40;2.28;;;1.42;;
41139;SDS011;26881;48.784;9.192;2023-09-19T15:09:08;2.10;;;1.17;;
41139;SDS011;26881;48.784;9.192;2023-09-19T15:14:31;1.98;;;1.08;;
41139;SDS011;26881;48.784;9.192;2023-09-19T15:19:53;1.23;;;1.10;;
41139;SDS011;26881;48.784;9.192;2023-09-19T15:25:15;1.10;;;1.00;;
41139;SDS011;26881;48.784;9.192;2023-09-19T15:30:37;2.95;;;1.10;;
41139;SDS011;26881;48.784;9.192;2023-09-19T15:36:06;3.67;;;1.10;;
41139;SDS011;26881;48.784;9.192;2023-09-19T15:41:31;4.28;;;1.00;;
41139;SDS011;26881;48.784;9.192;2023-09-19T15:46:54;1.60;;;1.00;;
41139;SDS011;26881;48.784;9.192;2023-09-19T15:52:17;2.80;;;1.27;;
41139;SDS011;26881;48.784;9.192;2023-09-19T15:57:39;2.63;;;1.15;;
41139;SDS011;26881;48.784;9.192;2023-09-19T16:03:01;1.83;;;1.30;;
41139;SDS011;26881;48.784;9.192;2023-09-19T16:08:25;1.00;;;1.00;;
41139;SDS011;26881;48.784;9.192;2023-09-19T16:13:49;1.25;;;1.10;;
41139;SDS011;26881;48.784;9.192;2023-09-19T16:19:12;1.27;;;1.00;;
41139;SDS011;26881;48.784;9.192;2023-09-19T16:24:34;1.52;;;1.02;;
41139;SDS011;26881;48.784;9.192;2023-09-19T16:29:55;1.73;;;1.30;;
41139;SDS011;26881;48.784;9.192;2023-09-19T16:35:17;1.83;;;1.33;;
41139;SDS011;26881;48.784;9.192;2023-09-19T16:40:39;1.67;;;1.17;;
41139;SDS011;26881;48.784;9.192;2023-09-19T16:46:03;1.30;;;1.20;;
41139;SDS011;26881;48.784;9.192;2023-09-19T16:51:29;1.92;;;1.20;;
41139;SDS011;26881;48.784;9.192;2023-09-19T16:56:52;1.40;;;1.30;;
41139;SDS011;26881;48.784;9.192;2023-09-19T17:02:14;3.70;;;1.23;;
41139;SDS011;26881;48.784;9.192;2023-09-19T17:07:36;2.85;;;1.40;;
41139;SDS011;26881;48.784;9.192;2023-09-19T17:13:00;2.13;;;1.48;;
41139;SDS011;26881;48.784;9.192;2023-09-19T17:18:28;3.75;;;1.60;;
41139;SDS011;26881;48.784;9.192;2023-09-19T17:23:52;1.60;;;1.50;;
41139;SDS011;26881;48.784;9.192;2023-09-19T17:29:15;5.13;;;1.25;;
41139;SDS011;26881;48.784;9.192;2023-09-19T17:34:37;2.00;;;1.23;;
41139;SDS011;26881;48.784;9.192;2023-09-19T17:40:00;5.97;;;1.80;;
41139;SDS011;26881;48.784;9.192;2023-09-19T17:45:26;1.67;;;1.33;;
41139;SDS011;26881;48.784;9.192;2023-09-19T17:50:47;2.63;;;1.75;;
41139;SDS011;26881;48.784;9.192;2023-09-19T17:56:12;2.75;;;1.90;;
41139;SDS011;26881;48.784;9.192;2023-09-19T18:01:36;3.78;;;2.22;;
41139;SDS011;26881;48.784;9.192;2023-09-19T18:06:58;2.83;;;1.85;;
41139;SDS011;26881;48.784;9.192;2023-09-19T18:12:20;6.03;;;3.13;;
41139;SDS011;26881;48.784;9.192;2023-09-19T18:17:42;5.75;;;2.95;;
41139;SDS011;26881;48.784;9.192;2023-09-19T18:23:04;4.65;;;3.70;;
41139;SDS011;26881;48.784;9.192;2023-09-19T18:28:26;5.03;;;3.90;;
41139;SDS011;26881;48.784;9.192;2023-09-19T18:33:48;2.78;;;2.33;;
41139;SDS011;26881;48.784;9.192;2023-09-19T18:39:12;6.25;;;2.30;;
41139;SDS011;26881;48.784;9.192;2023-09-19T18:44:36;3.65;;;2.38;;
41139;SDS011;26881;48.784;9.192;2023-09-19T18:49:59;3.17;;;2.08;;
41139;SDS011;26881;48.784;9.192;2023-09-19T18:55:21;3.38;;;1.60;;
41139;SDS011;26881;48.784;9.192;2023-09-19T19:00:44;2.15;;;1.95;;
41139;SDS011;26881;48.784;9.192;2023-09-19T19:06:07;3.67;;;1.92;;
41139;SDS011;26881;48.784;9.192;2023-09-19T19:11:29;2.10;;;1.90;;
41139;SDS011;26881;48.784;9.192;2023-09-19T19:16:52;3.97;;;2.45;;
41139;SDS011;26881;48.784;9.192;2023-09-19T19:22:15;3.70;;;2.75;;
41139;SDS011;26881;48.784;9.192;2023-09-19T19:27:38;2.88;;;2.30;;
41139;SDS011;26881;48.784;9.192;2023-09-19T19:33:00;10.07;;;5.38;;
41139;SDS011;26881;48.784;9.192;2023-09-19T19:38:21;17.15;;;11.23;;
41139;SDS011;26881;48.784;9.192;2023-09-19T19:43:47;24.23;;;17.10;;
41139;SDS011;26881;48.784;9.192;2023-09-19T19:49:10;33.17;;;23.55;;
41139;SDS011;26881;48.784;9.192;2023-09-19T19:54:32;20.38;;;12.43;;
41139;SDS011;26881;48.784;9.192;2023-09-19T19:59:54;11.93;;;9.32;;
41139;SDS011;26881;48.784;9.192;2023-09-19T20:05:17;16.27;;;11.80;;
41139;SDS011;26881;48.784;9.192;2023-09-19T20:10:40;49.13;;;34.30;;
41139;SDS011;26881;48.784;9.192;2023-09-19T20:16:02;40.42;;;26.02;;
41139;SDS011;26881;48.784;9.192;2023-09-19T20:21:25;16.52;;;12.73;;
41139;SDS011;26881;48.784;9.192;2023-09-19T20:26:47;12.05;;;7.82;;
41139;SDS011;26881;48.784;9.192;2023-09-19T20:32:09;6.82;;;4.88;;
41139;SDS011;26881;48.784;9.192;2023-09-19T20:37:32;7.15;;;4.38;;
41139;SDS011;26881;48.784;9.192;2023-09-19T20:42:54;6.60;;;3.85;;
41139;SDS011;26881;48.784;9.192;2023-09-19T20:48:16;5.70;;;2.80;;
41139;SDS011;26881;48.784;9.192;2023-09-19T20:53:40;6.18;;;3.50;;
41139;SDS011;26881;48.784;9.192;2023-09-19T20:59:03;5.88;;;2.80;;
41139;SDS011;26881;48.784;9.192;2023-09-19T21:04:27;5.13;;;3.33;;
41139;SDS011;26881;48.784;9.192;2023-09-19T21:09:49;4.60;;;3.13;;
41139;SDS011;26881;48.784;9.192;2023-09-19T21:15:11;6.10;;;3.53;;
41139;SDS011;26881;48.784;9.192;2023-09-19T21:20:33;5.72;;;3.30;;
41139;SDS011;26881;48.784;9.192;2023-09-19T21:25:56;5.25;;;3.88;;
41139;SDS011;26881;48.784;9.192;2023-09-19T21:31:18;4.93;;;3.10;;
41139;SDS011;26881;48.784;9.192;2023-09-19T21:36:40;4.28;;;3.13;;
41139;SDS011;26881;48.784;9.192;2023-09-19T21:42:02;3.88;;;2.97;;
41139;SDS011;26881;48.784;9.192;2023-09-19T21:47:25;5.95;;;3.38;;
41139;SDS011;26881;48.784;9.192;2023-09-19T21:52:47;5.50;;;3.38;;
41139;SDS011;26881;48.784;9.192;2023-09-19T21:58:09;3.47;;;3.13;;
41139;SDS011;26881;48.784;9.192;2023-09-19T22:03:31;5.43;;;3.10;;
41139;SDS011;26881;48.784;9.192;2023-09-19T22:08:53;4.15;;;2.88;;
41139;SDS011;26881;48.784;9.192;2023-09-19T22:14:15;7.05;;;3.22;;
41139;SDS011;26881;48.784;9.192;2023-09-19T22:19:37;2.67;;;2.30;;
41139;SDS011;26881;48.784;9.192;2023-09-19T22:25:05;3.80;;;2.50;;
41139;SDS011;26881;48.784;9.192;2023-09-19T22:30:35;2.40;;;2.20;;
41139;SDS011;26881;48.784;9.192;2023-09-19T22:36:08;2.10;;;1.90;;
41139;SDS011;26881;48.784;9.192;2023-09-19T22:41:31;3.15;;;2.10;;
41139;SDS011;26881;48.784;9.192;2023-09-19T22:46:54;3.83;;;1.90;;
41139;SDS011;26881;48.784;9.192;2023-09-19T22:52:17;2.17;;;1.80;;
41139;SDS011;26881;48.784;9.192;2023-09-19T22:57:39;3.97;;;2.17;;
41139;SDS011;26881;48.784;9.192;2023-09-19T23:03:01;2.78;;;2.40;;
41139;SDS011;26881;48.784;9.192;2023-09-19T23:08:27;2.50;;;2.30;;
41139;SDS011;26881;48.784;9.192;2023-09-19T23:13:50;2.17;;;1.90;;
41139;SDS011;26881;48.784;9.192;2023-09-19T23:19:13;2.47;;;1.75;;
41139;SDS011;26881;48.784;9.192;2023-09-19T23:24:50;3.30;;;2.72;;
41139;SDS011;26881;48.784;9.192;2023-09-19T23:30:28;3.85;;;1.80;;
41139;SDS011;26881;48.784;9.192;2023-09-19T23:35:53;2.40;;;2.20;;
41139;SDS011;26881;48.784;9.192;2023-09-19T23:41:16;3.38;;;2.47;;
41139;SDS011;26881;48.784;9.192;2023-09-19T23:46:42;2.63;;;1.92;;
41139;SDS011;26881;48.784;9.192;2023-09-19T23:52:07;3.40;;;2.47;;
41139;SDS011;26881;48.784;9.192;2023-09-19T23:57:31;5.70;;;2.88;;
